createdAt,value
2023-01-03T00:01:32.597Z,0.73
2023-01-03T00:04:01.196Z,1.17
2023-01-03T00:06:38.195Z,2.83
2023-01-03T00:09:08.760Z,1.48
2023-01-03T00:11:56.397Z,1.35
2023-01-03T00:14:29.864Z,1.52
2023-01-03T00:16:59.998Z,1.67
2023-01-03T00:19:29.434Z,1.77
2023-01-03T00:21:56.995Z,1.17
2023-01-03T00:24:24.557Z,1.60
2023-01-03T00:26:51.962Z,1.20
2023-01-03T00:29:19.530Z,1.50
2023-01-03T00:31:46.925Z,2.42
2023-01-03T00:34:14.028Z,2.40
2023-01-03T00:36:41.885Z,1.60
2023-01-03T00:39:09.074Z,1.48
2023-01-03T00:41:36.182Z,1.40
2023-01-03T00:44:04.033Z,1.42
2023-01-03T00:46:31.325Z,1.25
2023-01-03T00:48:58.436Z,2.53
2023-01-03T00:51:28.827Z,1.90
2023-01-03T00:56:26.389Z,1.90
2023-01-03T00:58:54.008Z,0.98
2023-01-03T01:01:25.958Z,1.38
2023-01-03T01:04:00.082Z,2.75
2023-01-03T01:06:30.764Z,1.88
2023-01-03T01:08:59.569Z,1.70
2023-01-03T01:11:27.975Z,2.10
2023-01-03T01:13:56.767Z,2.08
2023-01-03T01:16:30.262Z,1.13
2023-01-03T01:19:00.138Z,1.00
2023-01-03T01:21:31.578Z,3.38
2023-01-03T01:24:00.247Z,0.95
2023-01-03T01:26:27.642Z,1.88
2023-01-03T01:28:55.332Z,1.25
2023-01-03T01:31:24.963Z,1.58
2023-01-03T01:33:53.572Z,1.85
2023-01-03T01:36:33.213Z,1.95
2023-01-03T01:39:21.845Z,1.30
2023-01-03T01:42:13.722Z,2.38
2023-01-03T01:44:54.671Z,1.35
2023-01-03T01:47:33.966Z,2.85
2023-01-03T01:50:39.389Z,1.33
2023-01-03T01:53:11.589Z,1.55
2023-01-03T01:55:47.314Z,0.80
2023-01-03T01:58:14.869Z,2.78
2023-01-03T02:00:43.943Z,1.45
2023-01-03T02:03:12.297Z,1.20
2023-01-03T02:05:44.434Z,1.23
2023-01-03T02:08:13.041Z,1.85
2023-01-03T02:11:20.751Z,1.75
2023-01-03T02:14:06.208Z,1.25
2023-01-03T02:16:48.527Z,2.15
2023-01-03T02:20:08.242Z,1.83
2023-01-03T02:22:49.105Z,1.87
2023-01-03T02:25:53.959Z,2.45
2023-01-03T02:28:26.673Z,1.98
2023-01-03T02:31:03.164Z,2.63
2023-01-03T02:33:51.731Z,1.85
2023-01-03T02:37:01.518Z,2.63
2023-01-03T02:39:45.370Z,1.85
2023-01-03T02:42:54.366Z,2.47
2023-01-03T02:46:00.276Z,2.45
2023-01-03T02:48:30.474Z,1.88
2023-01-03T02:51:01.996Z,3.13
2023-01-03T02:53:37.846Z,4.93
2023-01-03T02:56:08.608Z,4.70
2023-01-03T02:58:38.170Z,3.00
2023-01-03T03:01:09.037Z,3.40
2023-01-03T03:03:39.127Z,5.10
2023-01-03T03:06:12.181Z,3.20
2023-01-03T03:08:39.517Z,2.20
2023-01-03T03:11:25.790Z,2.40
2023-01-03T03:14:01.965Z,2.72
2023-01-03T03:16:48.099Z,2.47
2023-01-03T03:19:47.697Z,2.53
2023-01-03T03:23:03.590Z,2.30
2023-01-03T03:25:36.221Z,4.72
2023-01-03T03:28:28.048Z,2.47
2023-01-03T03:30:58.941Z,5.90
2023-01-03T03:33:29.191Z,4.18
2023-01-03T03:36:14.492Z,2.65
2023-01-03T03:38:45.051Z,2.10
2023-01-03T03:41:45.818Z,2.67
2023-01-03T03:44:49.501Z,5.10
2023-01-03T03:47:32.363Z,2.70
2023-01-03T03:50:08.780Z,2.75
2023-01-03T03:52:36.955Z,2.42
2023-01-03T03:55:13.701Z,3.92
2023-01-03T03:57:49.384Z,2.38
2023-01-03T04:00:23.337Z,2.97
2023-01-03T04:02:51.464Z,2.15
2023-01-03T04:05:22.182Z,3.38
2023-01-03T04:07:50.022Z,4.30
2023-01-03T04:10:20.544Z,2.33
2023-01-03T04:12:48.911Z,3.70
2023-01-03T04:15:16.763Z,1.83
2023-01-03T04:17:44.442Z,2.92
2023-01-03T04:20:12.253Z,4.18
2023-01-03T04:22:39.541Z,3.65
2023-01-03T04:25:07.504Z,2.50
2023-01-03T04:27:34.699Z,3.95
2023-01-03T04:30:01.816Z,2.58
2023-01-03T04:32:29.019Z,4.78
2023-01-03T04:34:56.044Z,4.13
2023-01-03T04:37:23.107Z,3.25
2023-01-03T04:39:50.201Z,4.25
2023-01-03T04:42:35.581Z,2.65
2023-01-03T04:45:02.674Z,2.17
2023-01-03T04:47:29.790Z,3.85
2023-01-03T04:49:56.829Z,4.55
2023-01-03T04:52:23.965Z,5.18
2023-01-03T04:54:51.075Z,5.65
2023-01-03T04:57:18.166Z,5.03
2023-01-03T04:59:45.236Z,3.88
2023-01-03T05:02:12.523Z,3.70
2023-01-03T05:04:39.840Z,5.45
2023-01-03T05:07:07.469Z,6.53
2023-01-03T05:09:35.051Z,3.60
2023-01-03T05:12:02.090Z,3.03
2023-01-03T05:14:29.201Z,5.53
2023-01-03T05:16:56.459Z,4.22
2023-01-03T05:19:23.746Z,4.38
2023-01-03T05:22:09.453Z,7.22
2023-01-03T05:24:55.366Z,4.35
2023-01-03T05:27:22.861Z,4.68
2023-01-03T05:29:53.156Z,3.60
2023-01-03T05:34:48.105Z,4.28
2023-01-03T05:37:15.078Z,6.13
2023-01-03T05:39:42.114Z,4.00
2023-01-03T05:42:09.205Z,3.92
2023-01-03T05:44:36.940Z,4.70
2023-01-03T05:47:05.110Z,6.80
2023-01-03T05:49:32.308Z,5.53
2023-01-03T05:51:59.347Z,5.53
2023-01-03T05:54:26.477Z,6.13
2023-01-03T05:56:53.595Z,4.65
2023-01-03T05:59:21.373Z,4.32
2023-01-03T06:01:49.435Z,2.50
2023-01-03T06:04:16.707Z,8.38
2023-01-03T06:06:43.820Z,4.78
2023-01-03T06:09:11.235Z,4.60
2023-01-03T06:11:40.259Z,4.38
2023-01-03T06:14:07.852Z,9.20
2023-01-03T06:17:07.296Z,6.50
2023-01-03T06:19:34.441Z,6.10
2023-01-03T06:22:05.611Z,5.55
2023-01-03T06:24:37.207Z,6.00
2023-01-03T06:27:04.353Z,5.75
2023-01-03T06:29:31.449Z,3.80
2023-01-03T06:32:02.175Z,6.38
2023-01-03T06:34:32.317Z,5.80
2023-01-03T06:36:59.334Z,9.25
2023-01-03T06:39:26.409Z,5.63
2023-01-03T06:41:53.551Z,6.72
2023-01-03T06:44:20.744Z,6.78
2023-01-03T06:47:06.210Z,9.65
2023-01-03T06:49:51.691Z,6.25
2023-01-03T06:52:37.568Z,8.80
2023-01-03T06:55:04.964Z,6.22
2023-01-03T06:57:32.150Z,8.80
2023-01-03T06:59:59.680Z,9.02
2023-01-03T07:02:27.028Z,6.38
2023-01-03T07:04:54.429Z,5.55
2023-01-03T07:07:21.673Z,7.75
2023-01-03T07:09:48.792Z,5.75
2023-01-03T07:12:38.318Z,6.57
2023-01-03T07:15:05.912Z,7.33
2023-01-03T07:17:32.949Z,3.55
2023-01-03T07:20:00.038Z,8.32
2023-01-03T07:22:27.706Z,7.10
2023-01-03T07:24:54.846Z,4.82
2023-01-03T07:27:22.210Z,4.85
2023-01-03T07:29:49.298Z,4.32
2023-01-03T07:32:16.547Z,9.75
2023-01-03T07:34:43.532Z,9.32
2023-01-03T07:37:10.623Z,6.32
2023-01-03T07:39:37.812Z,10.18
2023-01-03T07:42:23.327Z,6.03
2023-01-03T07:44:50.403Z,9.70
2023-01-03T07:47:17.525Z,6.07
2023-01-03T07:49:44.568Z,5.47
2023-01-03T07:52:11.609Z,7.15
2023-01-03T07:54:38.765Z,8.43
2023-01-03T07:57:06.055Z,6.35
2023-01-03T07:59:33.143Z,5.22
2023-01-03T08:02:00.298Z,6.32
2023-01-03T08:04:27.863Z,4.82
2023-01-03T08:06:55.025Z,5.35
2023-01-03T08:09:40.660Z,4.90
2023-01-03T08:12:28.344Z,5.85
2023-01-03T08:14:55.415Z,5.97
2023-01-03T08:17:22.578Z,5.45
2023-01-03T08:19:49.761Z,5.07
2023-01-03T08:22:17.105Z,7.68
2023-01-03T08:24:44.202Z,7.72
2023-01-03T08:27:11.306Z,4.72
2023-01-03T08:29:38.448Z,6.78
2023-01-03T08:32:06.723Z,5.85
2023-01-03T08:34:37.182Z,7.18
2023-01-03T08:37:11.261Z,6.70
2023-01-03T08:39:47.243Z,7.95
2023-01-03T08:42:16.690Z,8.25
2023-01-03T08:44:45.394Z,7.00
2023-01-03T08:47:14.986Z,7.22
2023-01-03T08:49:42.790Z,8.93
2023-01-03T08:52:09.938Z,5.20
2023-01-03T08:54:37.183Z,4.38
2023-01-03T08:57:04.303Z,7.20
2023-01-03T08:59:31.767Z,4.85
2023-01-03T09:02:00.432Z,8.88
2023-01-03T09:04:27.890Z,8.50
2023-01-03T09:06:55.105Z,4.88
2023-01-03T09:09:22.357Z,4.72
2023-01-03T09:11:49.722Z,10.88
2023-01-03T09:14:16.822Z,5.70
2023-01-03T09:16:48.726Z,4.25
2023-01-03T09:19:16.585Z,6.15
2023-01-03T09:21:43.713Z,4.82
2023-01-03T09:24:10.806Z,6.97
2023-01-03T09:26:38.004Z,4.93
2023-01-03T09:29:05.171Z,7.55
2023-01-03T09:31:35.076Z,7.30
2023-01-03T09:34:04.863Z,6.18
2023-01-03T09:36:32.606Z,7.80
2023-01-03T09:38:59.727Z,7.68
2023-01-03T09:41:28.207Z,5.40
2023-01-03T09:44:08.195Z,6.38
2023-01-03T09:46:36.186Z,7.88
2023-01-03T09:49:06.091Z,10.82
2023-01-03T09:51:59.209Z,12.60
2023-01-03T09:54:52.477Z,5.78
2023-01-03T09:57:42.978Z,7.18
2023-01-03T10:00:39.807Z,3.03
2023-01-03T10:03:49.840Z,4.03
2023-01-03T10:06:47.671Z,9.68
2023-01-03T10:09:41.622Z,7.35
2023-01-03T10:12:41.595Z,6.18
2023-01-03T10:15:31.825Z,6.55
2023-01-03T10:18:26.588Z,5.32
2023-01-03T10:21:00.676Z,5.88
2023-01-03T10:23:29.451Z,5.55
2023-01-03T10:25:57.256Z,3.65
2023-01-03T10:28:36.593Z,5.55
2023-01-03T10:31:25.844Z,8.70
2023-01-03T10:33:52.956Z,5.55
2023-01-03T10:36:22.130Z,5.07
2023-01-03T10:39:02.092Z,7.75
2023-01-03T10:41:44.536Z,6.20
2023-01-03T10:44:29.437Z,5.50
2023-01-03T10:47:08.610Z,7.30
2023-01-03T10:49:35.751Z,4.28
2023-01-03T10:52:02.864Z,6.10
2023-01-03T10:54:46.937Z,5.38
2023-01-03T10:57:55.832Z,6.20
2023-01-03T11:00:29.020Z,6.78
2023-01-03T11:03:09.914Z,7.18
2023-01-03T11:05:38.105Z,5.85
2023-01-03T11:08:13.609Z,5.97
2023-01-03T11:11:01.016Z,8.45
2023-01-03T11:13:37.383Z,5.80
2023-01-03T11:16:14.340Z,6.72
2023-01-03T11:18:43.022Z,7.40
2023-01-03T11:21:26.621Z,11.60
2023-01-03T11:24:18.340Z,8.77
2023-01-03T11:27:24.024Z,7.15
2023-01-03T11:30:26.393Z,7.25
2023-01-03T11:33:22.680Z,7.15
2023-01-03T11:36:12.491Z,7.38
2023-01-03T11:38:52.118Z,8.60
2023-01-03T11:41:51.521Z,5.97
2023-01-03T11:44:39.363Z,8.55
2023-01-03T11:47:30.615Z,6.68
2023-01-03T11:50:28.067Z,9.10
2023-01-03T11:53:16.689Z,7.35
2023-01-03T11:56:07.328Z,7.35
2023-01-03T11:58:52.443Z,4.53
2023-01-03T12:01:25.570Z,5.03
2023-01-03T12:04:13.582Z,8.27
2023-01-03T12:10:08.396Z,5.03
2023-01-03T12:12:58.619Z,7.65
2023-01-03T12:15:32.124Z,4.68
2023-01-03T12:18:23.032Z,4.13
2023-01-03T12:20:57.454Z,4.70
2023-01-03T12:23:49.103Z,5.28
2023-01-03T12:26:17.559Z,4.63
2023-01-03T12:29:20.325Z,4.80
2023-01-03T12:32:09.563Z,4.35
2023-01-03T12:34:50.427Z,3.45
2023-01-03T12:37:20.746Z,6.00
2023-01-03T12:42:48.015Z,6.33
2023-01-03T12:45:15.253Z,5.47
2023-01-03T12:47:54.186Z,5.45
2023-01-03T12:50:30.433Z,8.85
2023-01-03T12:53:14.689Z,9.00
2023-01-03T12:56:08.332Z,6.85
2023-01-03T12:59:00.313Z,7.05
2023-01-03T13:01:34.835Z,4.90
2023-01-03T13:04:27.626Z,7.78
2023-01-03T13:07:12.241Z,7.00
2023-01-03T13:09:44.974Z,7.35
2023-01-03T13:12:19.258Z,5.10
2023-01-03T13:14:54.655Z,9.82
2023-01-03T13:17:29.124Z,9.23
2023-01-03T13:20:18.584Z,8.77
2023-01-03T13:22:52.229Z,12.03
2023-01-03T13:25:42.551Z,12.52
2023-01-03T13:28:21.234Z,7.30
2023-01-03T13:30:48.890Z,8.80
2023-01-03T13:33:19.156Z,15.18
2023-01-03T13:35:46.116Z,9.90
2023-01-03T13:38:39.312Z,12.70
2023-01-03T13:41:32.289Z,9.23
2023-01-03T13:44:09.802Z,5.55
2023-01-03T13:46:42.195Z,17.02
2023-01-03T13:49:19.396Z,14.88
2023-01-03T13:51:51.996Z,17.13
2023-01-03T13:54:19.064Z,15.25
2023-01-03T13:56:46.153Z,10.65
2023-01-03T13:59:18.019Z,10.95
2023-01-03T14:01:51.129Z,11.27
2023-01-03T14:04:49.125Z,11.85
2023-01-03T14:07:47.819Z,10.93
2023-01-03T14:10:47.055Z,9.02
2023-01-03T14:13:26.435Z,14.15
2023-01-03T14:16:39.895Z,11.37
2023-01-03T14:19:18.143Z,15.18
2023-01-03T14:21:54.734Z,13.40
2023-01-03T14:24:31.773Z,17.77
2023-01-03T14:27:14.777Z,15.57
2023-01-03T14:29:52.660Z,15.80
2023-01-03T14:32:27.531Z,8.45
2023-01-03T14:34:57.868Z,9.65
2023-01-03T14:37:26.714Z,9.57
2023-01-03T14:39:56.413Z,10.52
2023-01-03T14:42:24.645Z,10.15
2023-01-03T14:44:56.858Z,10.60
2023-01-03T14:47:31.562Z,9.38
2023-01-03T14:49:59.070Z,7.90
2023-01-03T14:52:33.217Z,13.90
2023-01-03T14:55:07.251Z,10.23
2023-01-03T14:57:39.340Z,8.93
2023-01-03T15:00:08.612Z,8.80
2023-01-03T15:02:39.419Z,6.33
2023-01-03T15:05:27.423Z,6.25
2023-01-03T15:07:55.548Z,10.90
2023-01-03T15:10:41.394Z,8.68
2023-01-03T15:13:19.656Z,9.68
2023-01-03T15:15:54.947Z,6.00
2023-01-03T15:18:24.872Z,8.32
2023-01-03T15:20:55.407Z,7.93
2023-01-03T15:23:29.158Z,8.45
2023-01-03T15:25:56.275Z,6.15
2023-01-03T15:28:25.743Z,8.73
2023-01-03T15:30:55.960Z,7.73
2023-01-03T15:33:35.001Z,13.98
2023-01-03T15:36:19.160Z,12.00
2023-01-03T15:38:48.984Z,8.65
2023-01-03T15:41:46.704Z,9.25
2023-01-03T15:44:19.182Z,10.77
2023-01-03T15:46:47.080Z,9.45
2023-01-03T15:49:17.033Z,8.43
2023-01-03T15:51:44.220Z,9.93
2023-01-03T15:54:16.405Z,8.13
2023-01-03T15:57:00.436Z,12.70
2023-01-03T15:59:33.726Z,9.88
2023-01-03T16:02:03.165Z,10.07
2023-01-03T16:04:30.399Z,11.02
2023-01-03T16:06:57.486Z,7.50
2023-01-03T16:09:24.536Z,11.13
2023-01-03T16:11:56.655Z,18.33
2023-01-03T16:14:28.993Z,16.05
2023-01-03T16:16:58.029Z,13.07
2023-01-03T16:19:27.122Z,14.38
2023-01-03T16:22:32.460Z,13.13
2023-01-03T16:24:45.906Z,12.20
2023-01-03T16:27:20.987Z,11.57
2023-01-03T16:29:48.497Z,10.52
2023-01-03T16:32:21.681Z,11.32
2023-01-03T16:34:49.389Z,10.38
2023-01-03T16:37:17.139Z,15.90
2023-01-03T16:39:48.304Z,14.73
2023-01-03T16:42:15.917Z,14.00
2023-01-03T16:44:46.843Z,16.73
2023-01-03T16:47:22.342Z,18.88
2023-01-03T16:50:00.941Z,17.45
2023-01-03T16:52:34.312Z,18.80
2023-01-03T16:55:26.871Z,18.27
2023-01-03T16:57:55.273Z,17.15
2023-01-03T17:00:25.651Z,18.52
2023-01-03T17:02:56.198Z,16.73
2023-01-03T17:05:23.798Z,16.65
2023-01-03T17:07:53.475Z,16.40
2023-01-03T17:10:27.903Z,19.60
2023-01-03T17:12:59.506Z,15.20
2023-01-03T17:15:27.299Z,18.60
2023-01-03T17:17:54.495Z,14.35
2023-01-03T17:20:23.203Z,11.70
2023-01-03T17:22:54.371Z,11.45
2023-01-03T17:25:21.702Z,12.43
2023-01-03T17:27:59.602Z,10.63
2023-01-03T17:30:28.619Z,11.50
2023-01-03T17:32:55.791Z,12.13
2023-01-03T17:35:22.960Z,10.35
2023-01-03T17:40:39.636Z,11.20
2023-01-03T17:43:06.877Z,13.07
2023-01-03T17:45:52.390Z,11.40
2023-01-03T17:48:38.130Z,16.27
2023-01-03T17:51:05.348Z,11.05
2023-01-03T17:53:32.672Z,12.00
2023-01-03T17:55:59.798Z,10.50
2023-01-03T17:58:33.554Z,14.10
2023-01-03T18:01:00.833Z,12.15
2023-01-03T18:03:28.252Z,12.32
2023-01-03T18:05:56.307Z,13.82
2023-01-03T18:08:25.125Z,15.35
2023-01-03T18:10:55.920Z,16.02
2023-01-03T18:13:31.261Z,15.73
2023-01-03T18:15:59.082Z,16.52
2023-01-03T18:18:28.184Z,17.02
2023-01-03T18:20:56.280Z,15.60
2023-01-03T18:23:42.219Z,14.35
2023-01-03T18:26:14.125Z,15.38
2023-01-03T18:28:41.297Z,14.93
2023-01-03T18:31:17.332Z,17.85
2023-01-03T18:33:45.258Z,17.48
2023-01-03T18:36:27.949Z,18.10
2023-01-03T18:39:02.067Z,22.40
2023-01-03T18:41:31.148Z,17.63
2023-01-03T18:43:58.541Z,16.58
2023-01-03T18:46:28.546Z,16.20
2023-01-03T18:48:56.171Z,16.20
2023-01-03T18:51:27.348Z,16.83
2023-01-03T18:53:59.215Z,19.52
2023-01-03T18:56:32.311Z,15.18
2023-01-03T18:59:03.415Z,16.42
2023-01-03T19:01:31.104Z,16.63
2023-01-03T19:03:58.551Z,18.48
2023-01-03T19:06:34.035Z,14.05
2023-01-03T19:09:04.727Z,13.75
2023-01-03T19:11:36.118Z,16.05
2023-01-03T19:14:04.373Z,18.80
2023-01-03T19:16:36.655Z,18.75
2023-01-03T19:19:05.212Z,17.20
2023-01-03T19:21:39.120Z,18.38
2023-01-03T19:24:18.053Z,15.23
2023-01-03T19:26:50.923Z,16.25
2023-01-03T19:29:22.629Z,15.63
2023-01-03T19:31:52.224Z,17.55
2023-01-03T19:34:22.195Z,19.55
2023-01-03T19:36:49.990Z,21.00
2023-01-03T19:39:24.079Z,23.17
2023-01-03T19:42:14.514Z,25.85
2023-01-03T19:44:42.521Z,31.80
2023-01-03T19:47:15.035Z,29.48
2023-01-03T19:49:43.494Z,35.05
2023-01-03T19:52:10.674Z,35.05
2023-01-03T19:54:37.807Z,32.65
2023-01-03T19:57:05.665Z,33.35
2023-01-03T19:59:35.250Z,41.00
2023-01-03T20:02:25.376Z,26.67
2023-01-03T20:04:56.044Z,34.08
2023-01-03T20:07:23.382Z,39.60
2023-01-03T20:09:50.450Z,21.70
2023-01-03T20:12:24.646Z,21.45
2023-01-03T20:14:55.023Z,20.88
2023-01-03T20:17:26.642Z,19.67
2023-01-03T20:19:54.079Z,16.75
2023-01-03T20:23:02.368Z,19.63
2023-01-03T20:25:30.978Z,19.60
2023-01-03T20:27:59.816Z,14.95
2023-01-03T20:30:29.639Z,17.30
2023-01-03T20:32:57.277Z,18.60
2023-01-03T20:36:08.509Z,17.80
2023-01-03T20:38:17.022Z,25.38
2023-01-03T20:40:44.128Z,22.88
2023-01-03T20:43:14.919Z,19.88
2023-01-03T20:45:42.206Z,22.13
2023-01-03T20:48:19.289Z,18.63
2023-01-03T20:50:50.398Z,22.27
2023-01-03T20:53:20.587Z,24.15
2023-01-03T20:58:25.485Z,24.63
2023-01-03T21:00:56.936Z,18.80
2023-01-03T21:03:28.977Z,19.35
2023-01-03T21:05:56.448Z,22.42
2023-01-03T21:08:42.186Z,35.42
2023-01-03T21:11:09.213Z,30.67
2023-01-03T21:13:37.159Z,37.55
2023-01-03T21:16:28.365Z,27.67
2023-01-03T21:18:55.906Z,23.13
2023-01-03T21:21:24.601Z,25.42
2023-01-03T21:23:51.784Z,21.98
2023-01-03T21:26:19.824Z,23.15
2023-01-03T21:28:46.942Z,22.90
2023-01-03T21:31:19.286Z,22.30
2023-01-03T21:33:46.909Z,22.58
2023-01-03T21:36:23.007Z,25.73
2023-01-03T21:38:51.269Z,26.17
2023-01-03T21:41:21.188Z,20.38
2023-01-03T21:43:48.352Z,19.13
2023-01-03T21:46:17.453Z,21.15
2023-01-03T21:48:45.237Z,23.60
2023-01-03T21:51:14.102Z,25.08
2023-01-03T21:53:42.400Z,21.67
2023-01-03T21:56:15.401Z,22.83
2023-01-03T21:58:42.511Z,22.83
2023-01-03T22:01:18.114Z,21.98
2023-01-03T22:04:03.887Z,25.35
2023-01-03T22:06:31.159Z,21.27
2023-01-03T22:09:00.215Z,21.70
2023-01-03T22:11:28.673Z,19.55
2023-01-03T22:13:58.595Z,20.13
2023-01-03T22:16:26.265Z,21.58
2023-01-03T22:18:53.565Z,18.67
2023-01-03T22:21:21.483Z,24.77
2023-01-03T22:23:48.650Z,23.48
2023-01-03T22:26:16.614Z,19.30
2023-01-03T22:28:47.564Z,17.95
2023-01-03T22:31:17.681Z,23.08
2023-01-03T22:33:49.136Z,21.92
2023-01-03T22:36:17.023Z,20.83
2023-01-03T22:38:44.845Z,21.83
2023-01-03T22:41:17.433Z,20.45
2023-01-03T22:43:45.447Z,23.65
2023-01-03T22:46:17.157Z,22.30
2023-01-03T22:48:45.263Z,23.13
2023-01-03T22:51:14.603Z,26.38
2023-01-03T22:53:43.562Z,25.30
2023-01-03T22:56:15.379Z,23.77
2023-01-03T22:58:43.812Z,24.88
2023-01-03T23:01:13.120Z,22.48
2023-01-03T23:03:40.401Z,22.02
2023-01-03T23:06:09.518Z,22.80
2023-01-03T23:08:37.046Z,24.05
2023-01-03T23:11:33.367Z,22.98
2023-01-03T23:14:12.333Z,21.98
2023-01-03T23:16:40.457Z,24.23
2023-01-03T23:19:11.923Z,24.58
2023-01-03T23:21:39.409Z,25.30
2023-01-03T23:24:07.288Z,28.33
2023-01-03T23:26:34.350Z,22.98
2023-01-03T23:29:01.513Z,20.98
2023-01-03T23:31:29.015Z,23.73
2023-01-03T23:33:56.893Z,21.55
2023-01-03T23:36:24.621Z,27.30
2023-01-03T23:38:51.982Z,21.10
2023-01-03T23:41:19.995Z,22.90
2023-01-03T23:43:47.148Z,22.85
2023-01-03T23:46:17.501Z,22.58
2023-01-03T23:48:44.912Z,23.70
2023-01-03T23:51:12.983Z,21.42
2023-01-03T23:53:42.460Z,21.27
2023-01-03T23:56:13.606Z,25.23
2023-01-03T23:58:41.127Z,25.13
